Login to view Products
 
Saturday, February 24, 2024 (20:09 UTC)
Al Ain International Airport
ICAO: OMAL
IATA: AAN
  • METAR OMAL 242000Z 01005KT CAVOK 22/09 Q1015 NOSIG=
  • TAF OMAL 241700Z 2418/2600 04005KT 8000 NSC BECMG 2500/2502 16012KT PROB30 TEMPO 2503/2511 17015G25KT 3000 BLDU BECMG 2512/2514 28010KT PROB30 TEMPO 2512/2520 VRB20G33KT 2000 TSRA BLDU FEW045CB=
20-- D:\Input Parser\Destinations\Final\17\OMAL_TAF.txt-- 24/02/2024-- 24/02/2024-- 3
Last Updated:
Wind Dir/Speed:
Temperature:
Rel. Humidity:
Pressure:
Visibility: